createdAt,value
2018-11-12T00:00:00.914Z,9.07
2018-11-12T00:02:29.319Z,8.37
2018-11-12T00:04:57.762Z,8.93
2018-11-12T00:07:26.135Z,10.90
2018-11-12T00:09:54.533Z,10.17
2018-11-12T00:12:23.132Z,13.80
2018-11-12T00:14:51.519Z,10.87
2018-11-12T00:17:20.108Z,11.33
2018-11-12T00:19:48.497Z,8.80
2018-11-12T00:22:16.946Z,8.57
2018-11-12T00:24:45.368Z,12.23
2018-11-12T00:27:13.778Z,9.00
2018-11-12T00:29:42.168Z,9.57
2018-11-12T00:32:10.580Z,8.73
2018-11-12T00:34:39.203Z,7.90
2018-11-12T00:37:07.592Z,8.83
2018-11-12T00:39:35.958Z,8.87
2018-11-12T00:42:04.482Z,8.70
2018-11-12T00:44:32.870Z,7.37
2018-11-12T00:47:01.608Z,10.30
2018-11-12T00:49:30.508Z,8.10
2018-11-12T00:51:58.912Z,9.53
2018-11-12T00:54:27.331Z,9.23
2018-11-12T00:56:56.271Z,9.13
2018-11-12T00:59:24.660Z,9.03
2018-11-12T01:01:53.122Z,7.87
2018-11-12T01:04:21.516Z,8.90
2018-11-12T01:06:50.082Z,10.37
2018-11-12T01:09:18.449Z,11.43
2018-11-12T01:11:46.856Z,8.23
2018-11-12T01:14:15.274Z,9.33
2018-11-12T01:16:43.778Z,9.63
2018-11-12T01:19:12.193Z,9.77
2018-11-12T01:21:40.618Z,11.80
2018-11-12T01:24:09.001Z,9.97
2018-11-12T01:26:37.387Z,10.83
2018-11-12T01:29:06.001Z,11.67
2018-11-12T01:31:34.503Z,10.00
2018-11-12T01:34:02.923Z,10.20
2018-11-12T01:36:31.255Z,12.03
2018-11-12T01:38:59.634Z,10.30
2018-11-12T01:41:28.039Z,9.57
2018-11-12T01:43:56.455Z,8.93
2018-11-12T01:46:24.859Z,8.90
2018-11-12T01:48:53.403Z,10.47
2018-11-12T01:51:21.844Z,10.87
2018-11-12T01:53:50.277Z,9.30
2018-11-12T01:56:18.653Z,10.80
2018-11-12T01:58:47.039Z,8.53
2018-11-12T02:01:15.424Z,8.47
2018-11-12T02:03:43.895Z,8.00
2018-11-12T02:06:12.287Z,12.17
2018-11-12T02:08:40.770Z,10.07
2018-11-12T02:11:09.144Z,10.70
2018-11-12T02:13:37.571Z,10.03
2018-11-12T02:16:08.160Z,10.17
2018-11-12T02:18:36.616Z,12.10
2018-11-12T02:21:05.412Z,8.93
2018-11-12T02:23:33.821Z,10.23
2018-11-12T02:26:02.238Z,9.23
2018-11-12T02:28:30.626Z,10.47
2018-11-12T02:30:59.384Z,10.00
2018-11-12T02:33:27.960Z,9.33
2018-11-12T02:35:56.168Z,8.93
2018-11-12T02:38:24.722Z,10.53
2018-11-12T02:40:53.213Z,11.17
2018-11-12T02:43:21.629Z,10.67
2018-11-12T02:45:50.061Z,8.80
2018-11-12T02:48:18.441Z,9.03
2018-11-12T02:50:46.836Z,10.10
2018-11-12T02:53:15.238Z,10.17
2018-11-12T02:55:43.671Z,11.70
2018-11-12T02:58:12.094Z,10.73
2018-11-12T03:00:40.493Z,9.13
2018-11-12T03:03:08.920Z,13.53
2018-11-12T03:05:37.337Z,10.93
2018-11-12T03:08:07.765Z,10.67
2018-11-12T03:10:36.179Z,10.47
2018-11-12T03:13:04.840Z,10.97
2018-11-12T03:15:33.257Z,9.17
2018-11-12T03:18:02.445Z,9.10
2018-11-12T03:20:30.905Z,9.73
2018-11-12T03:22:59.324Z,9.63
2018-11-12T03:25:27.711Z,9.83
2018-11-12T03:27:56.126Z,11.40
2018-11-12T03:30:24.507Z,10.80
2018-11-12T03:32:53.867Z,8.63
2018-11-12T03:35:22.343Z,10.17
2018-11-12T03:37:51.359Z,9.63
2018-11-12T03:40:21.731Z,9.07
2018-11-12T03:42:50.763Z,11.03
2018-11-12T03:45:21.395Z,7.80
2018-11-12T03:47:49.823Z,10.73
2018-11-12T03:50:19.468Z,9.70
2018-11-12T03:52:47.896Z,7.83
2018-11-12T03:55:17.670Z,11.10
2018-11-12T03:57:46.229Z,11.40
2018-11-12T04:00:17.794Z,8.07
2018-11-12T04:02:46.097Z,8.43
2018-11-12T04:05:14.523Z,9.97
2018-11-12T04:07:43.079Z,7.27
2018-11-12T04:10:14.215Z,10.20
2018-11-12T04:12:42.581Z,7.37
2018-11-12T04:15:13.651Z,7.53
2018-11-12T04:17:42.027Z,7.07
2018-11-12T04:20:12.603Z,9.17
2018-11-12T04:22:41.895Z,8.67
2018-11-12T04:25:11.717Z,7.80
2018-11-12T04:27:40.161Z,9.27
2018-11-12T04:30:12.576Z,9.43
2018-11-12T04:32:41.512Z,7.27
2018-11-12T04:35:10.349Z,8.50
2018-11-12T04:37:38.830Z,18.40
2018-11-12T04:40:12.142Z,8.27
2018-11-12T04:42:41.118Z,9.20
2018-11-12T04:45:11.451Z,8.17
2018-11-12T04:47:41.437Z,8.67
2018-11-12T04:50:13.080Z,10.30
2018-11-12T04:52:41.697Z,8.33
2018-11-12T04:55:11.555Z,8.10
2018-11-12T04:57:40.584Z,7.57
2018-11-12T05:00:15.590Z,9.33
2018-11-12T05:02:44.523Z,7.20
2018-11-12T05:05:16.291Z,8.17
2018-11-12T05:07:45.168Z,10.17
2018-11-12T05:10:15.934Z,9.57
2018-11-12T05:12:44.881Z,9.57
2018-11-12T05:15:15.696Z,9.47
2018-11-12T05:17:44.106Z,8.43
2018-11-12T05:20:15.751Z,10.27
2018-11-12T05:22:44.308Z,9.13
2018-11-12T05:25:12.823Z,8.70
2018-11-12T05:27:41.219Z,9.83
2018-11-12T05:30:15.011Z,7.70
2018-11-12T05:32:43.643Z,8.33
2018-11-12T05:35:13.303Z,8.27
2018-11-12T05:37:41.920Z,10.07
2018-11-12T05:40:13.969Z,8.87
2018-11-12T05:42:42.862Z,10.03
2018-11-12T05:45:11.649Z,9.30
2018-11-12T05:47:40.249Z,7.93
2018-11-12T05:50:13.367Z,8.57
2018-11-12T05:52:43.179Z,7.13
2018-11-12T05:55:13.075Z,8.03
2018-11-12T05:57:42.247Z,7.77
2018-11-12T06:00:12.163Z,12.20
2018-11-12T06:02:40.735Z,12.23
2018-11-12T06:05:10.879Z,8.60
2018-11-12T06:07:39.371Z,9.27
2018-11-12T06:10:10.372Z,8.43
2018-11-12T06:12:38.868Z,6.90
2018-11-12T06:15:08.560Z,7.13
2018-11-12T06:17:37.095Z,9.47
2018-11-12T06:20:08.866Z,6.83
2018-11-12T06:22:37.312Z,6.77
2018-11-12T06:25:06.778Z,7.60
2018-11-12T06:27:35.252Z,7.83
2018-11-12T06:30:03.820Z,8.27
2018-11-12T06:32:32.242Z,6.50
2018-11-12T06:35:00.589Z,6.07
2018-11-12T06:37:29.068Z,6.33
2018-11-12T06:39:57.564Z,7.03
2018-11-12T06:42:26.015Z,6.50
2018-11-12T06:44:54.457Z,7.50
2018-11-12T06:47:23.133Z,6.03
2018-11-12T06:49:51.533Z,6.43
2018-11-12T06:52:20.082Z,6.33
2018-11-12T06:54:48.577Z,5.93
2018-11-12T06:57:17.009Z,6.13
2018-11-12T06:59:45.522Z,5.90
2018-11-12T07:02:14.155Z,5.43
2018-11-12T07:04:42.564Z,6.63
2018-11-12T07:07:12.071Z,8.57
2018-11-12T07:09:40.741Z,7.43
2018-11-12T07:12:09.155Z,7.93
2018-11-12T07:14:37.579Z,5.13
2018-11-12T07:17:06.574Z,6.83
2018-11-12T07:19:35.061Z,11.83
2018-11-12T07:22:03.493Z,9.27
2018-11-12T07:24:31.927Z,7.70
2018-11-12T07:27:00.355Z,6.37
2018-11-12T07:29:28.779Z,8.13
2018-11-12T07:31:57.193Z,8.83
2018-11-12T07:34:25.586Z,6.07
2018-11-12T07:36:54.033Z,6.10
2018-11-12T07:39:23.131Z,9.33
2018-11-12T07:41:51.523Z,6.57
2018-11-12T07:44:19.986Z,10.03
2018-11-12T07:46:48.381Z,7.20
2018-11-12T07:49:16.873Z,7.60
2018-11-12T07:51:45.263Z,6.00
2018-11-12T07:54:13.663Z,5.63
2018-11-12T07:56:42.251Z,10.87
2018-11-12T07:59:10.644Z,7.07
2018-11-12T08:01:39.188Z,7.23
2018-11-12T08:04:07.583Z,5.63
2018-11-12T08:06:36.958Z,5.10
2018-11-12T08:09:07.458Z,9.30
2018-11-12T08:11:36.161Z,6.93
2018-11-12T08:14:04.614Z,7.13
2018-11-12T08:16:33.025Z,7.27
2018-11-12T08:19:01.390Z,4.80
2018-11-12T08:21:29.849Z,6.87
2018-11-12T08:23:58.185Z,6.40
2018-11-12T08:26:26.784Z,7.53
2018-11-12T08:28:55.207Z,7.67
2018-11-12T08:31:23.616Z,7.33
2018-11-12T08:33:52.012Z,6.37
2018-11-12T08:36:20.493Z,5.10
2018-11-12T08:38:48.962Z,5.93
2018-11-12T08:41:17.381Z,8.33
2018-11-12T08:43:45.862Z,5.13
2018-11-12T08:46:14.459Z,7.30
2018-11-12T08:48:42.756Z,3.87
2018-11-12T08:51:11.166Z,5.10
2018-11-12T08:53:39.549Z,4.37
2018-11-12T08:56:08.967Z,4.30
2018-11-12T08:58:37.528Z,4.17
2018-11-12T09:01:06.357Z,4.20
2018-11-12T09:03:34.985Z,4.00
2018-11-12T09:06:03.713Z,5.27
2018-11-12T09:08:32.050Z,5.10
2018-11-12T09:11:00.963Z,4.40
2018-11-12T09:13:30.122Z,5.93
2018-11-12T09:15:58.554Z,5.40
2018-11-12T09:18:27.119Z,5.10
2018-11-12T09:20:55.811Z,3.50
2018-11-12T09:23:25.107Z,2.77
2018-11-12T09:25:53.511Z,3.20
2018-11-12T09:28:21.927Z,4.20
2018-11-12T09:30:51.961Z,2.70
2018-11-12T09:33:18.910Z,4.73
2018-11-12T09:35:47.434Z,6.47
2018-11-12T09:38:15.746Z,3.10
2018-11-12T09:40:44.135Z,2.07
2018-11-12T09:43:12.639Z,3.73
2018-11-12T09:45:41.013Z,2.87
2018-11-12T09:48:09.463Z,5.97
2018-11-12T09:50:37.806Z,4.23
2018-11-12T09:53:06.403Z,5.20
2018-11-12T09:55:34.866Z,6.03
2018-11-12T09:58:05.617Z,2.03
2018-11-12T10:00:34.459Z,4.37
2018-11-12T10:03:03.663Z,1.87
2018-11-12T10:05:33.152Z,1.60
2018-11-12T10:08:05.194Z,1.83
2018-11-12T10:10:41.622Z,3.83
2018-11-12T10:13:10.807Z,3.47
2018-11-12T10:15:40.484Z,1.80
2018-11-12T10:18:09.209Z,3.30
2018-11-12T10:20:34.105Z,1.70
2018-11-12T10:23:02.584Z,2.40
2018-11-12T10:25:31.055Z,3.10
2018-11-12T10:27:59.531Z,3.10
2018-11-12T10:30:27.881Z,1.73
2018-11-12T10:32:56.582Z,2.37
2018-11-12T10:35:25.400Z,3.47
2018-11-12T10:37:53.806Z,2.07
2018-11-12T10:40:23.403Z,1.90
2018-11-12T10:42:51.902Z,2.43
2018-11-12T10:45:20.320Z,4.00
2018-11-12T10:47:49.898Z,2.07
2018-11-12T10:50:18.335Z,3.03
2018-11-12T10:52:46.710Z,3.63
2018-11-12T10:55:17.008Z,2.00
2018-11-12T10:57:46.484Z,3.67
2018-11-12T11:00:22.919Z,2.87
2018-11-12T11:02:57.050Z,4.47
2018-11-12T11:05:25.466Z,3.33
2018-11-12T11:07:54.416Z,3.13
2018-11-12T11:10:24.528Z,4.37
2018-11-12T11:12:53.152Z,2.93
2018-11-12T11:15:26.388Z,1.90
2018-11-12T11:18:13.342Z,6.70
2018-11-12T11:20:41.787Z,4.67
2018-11-12T11:23:10.309Z,3.60
2018-11-12T11:25:38.757Z,3.77
2018-11-12T11:28:07.381Z,2.87
2018-11-12T11:30:35.892Z,5.73
2018-11-12T11:33:04.534Z,5.33
2018-11-12T11:35:33.050Z,2.03
2018-11-12T11:38:01.604Z,3.10
2018-11-12T11:40:30.141Z,4.83
2018-11-12T11:42:58.510Z,2.30
2018-11-12T11:45:26.901Z,5.23
2018-11-12T11:47:55.401Z,5.17
2018-11-12T11:50:25.486Z,4.40
2018-11-12T11:52:53.726Z,2.40
2018-11-12T11:55:23.249Z,2.37
2018-11-12T11:57:52.380Z,2.03
2018-11-12T12:00:22.984Z,3.10
2018-11-12T12:02:52.461Z,4.20
2018-11-12T12:05:21.835Z,3.07
2018-11-12T12:07:50.835Z,4.40
2018-11-12T12:10:19.409Z,1.70
2018-11-12T12:12:48.746Z,3.20
2018-11-12T12:15:18.327Z,2.83
2018-11-12T12:17:46.700Z,3.33
2018-11-12T12:20:22.836Z,4.13
2018-11-12T12:22:51.720Z,2.00
2018-11-12T12:25:20.345Z,2.43
2018-11-12T12:27:49.012Z,3.93
2018-11-12T12:30:20.784Z,3.87
2018-11-12T12:32:50.378Z,2.10
2018-11-12T12:35:18.824Z,3.10
2018-11-12T12:37:49.750Z,1.87
2018-11-12T12:40:20.346Z,4.03
2018-11-12T12:42:49.113Z,3.80
2018-11-12T12:45:19.408Z,4.13
2018-11-12T12:47:50.125Z,2.93
2018-11-12T12:50:19.131Z,4.17
2018-11-12T12:52:47.592Z,1.57
2018-11-12T12:55:16.702Z,3.10
2018-11-12T12:57:45.757Z,3.93
2018-11-12T13:00:21.408Z,3.30
2018-11-12T13:02:49.871Z,3.53
2018-11-12T13:05:18.310Z,3.27
2018-11-12T13:07:46.717Z,3.23
2018-11-12T13:10:16.490Z,3.30
2018-11-12T13:12:44.850Z,2.80
2018-11-12T13:15:14.711Z,2.20
2018-11-12T13:17:43.899Z,5.00
2018-11-12T13:20:13.843Z,2.97
2018-11-12T13:22:42.871Z,2.67
2018-11-12T13:25:11.931Z,4.60
2018-11-12T13:27:40.507Z,3.37
2018-11-12T13:30:10.767Z,6.37
2018-11-12T13:32:39.847Z,4.83
2018-11-12T13:35:10.105Z,7.30
2018-11-12T13:37:38.599Z,3.07
2018-11-12T13:40:10.242Z,6.93
2018-11-12T13:42:38.900Z,2.30
2018-11-12T13:45:07.971Z,3.53
2018-11-12T13:47:36.386Z,2.60
2018-11-12T13:50:06.889Z,3.20
2018-11-12T13:52:35.345Z,1.97
2018-11-12T13:55:04.055Z,1.97
2018-11-12T13:57:32.457Z,5.17
2018-11-12T14:00:00.860Z,3.27
2018-11-12T14:02:29.312Z,1.73
2018-11-12T14:04:57.696Z,1.70
2018-11-12T14:07:26.165Z,3.57
2018-11-12T14:09:54.588Z,2.33
2018-11-12T14:12:23.056Z,2.30
2018-11-12T14:14:51.440Z,3.03
2018-11-12T14:17:20.172Z,2.33
2018-11-12T14:19:48.530Z,2.30
2018-11-12T14:22:16.934Z,2.30
2018-11-12T14:24:45.760Z,3.80
2018-11-12T14:27:14.562Z,3.97
2018-11-12T14:29:42.962Z,3.57
2018-11-12T14:32:11.324Z,2.90
2018-11-12T14:34:39.711Z,2.63
2018-11-12T14:37:08.155Z,3.13
2018-11-12T14:39:36.569Z,3.50
2018-11-12T14:42:04.977Z,2.83
2018-11-12T14:44:33.403Z,2.90
2018-11-12T14:47:01.949Z,3.57
2018-11-12T14:49:30.484Z,3.63
2018-11-12T14:51:58.915Z,4.17
2018-11-12T14:54:27.320Z,3.00
2018-11-12T14:56:55.721Z,2.90
2018-11-12T14:59:24.127Z,3.10
2018-11-12T15:01:52.621Z,3.20
2018-11-12T15:04:20.975Z,4.27
2018-11-12T15:06:49.366Z,3.70
2018-11-12T15:09:17.778Z,3.43
2018-11-12T15:11:46.923Z,3.30
2018-11-12T15:14:15.486Z,4.07
2018-11-12T15:16:43.827Z,3.20
2018-11-12T15:19:12.297Z,5.60
2018-11-12T15:21:40.753Z,4.13
2018-11-12T15:24:09.216Z,3.10
2018-11-12T15:26:37.609Z,3.97
2018-11-12T15:29:06.160Z,3.50
2018-11-12T15:31:34.553Z,3.30
2018-11-12T15:34:02.892Z,3.40
2018-11-12T15:36:31.320Z,3.77
2018-11-12T15:38:59.709Z,4.90
2018-11-12T15:41:28.467Z,4.70
2018-11-12T15:43:57.471Z,3.73
2018-11-12T15:46:25.884Z,4.10
2018-11-12T15:48:54.330Z,3.50
2018-11-12T15:51:22.760Z,3.67
2018-11-12T15:53:51.173Z,4.17
2018-11-12T15:56:19.590Z,5.30
2018-11-12T15:58:48.319Z,3.87
2018-11-12T16:01:16.757Z,3.40
2018-11-12T16:03:45.122Z,4.40
2018-11-12T16:06:13.863Z,6.53
2018-11-12T16:08:42.116Z,6.50
2018-11-12T16:11:10.534Z,4.43
2018-11-12T16:13:39.018Z,7.23
2018-11-12T16:16:07.493Z,4.27
2018-11-12T16:18:36.076Z,5.37
2018-11-12T16:21:04.475Z,6.53
2018-11-12T16:23:32.923Z,5.07
2018-11-12T16:26:01.344Z,5.60
2018-11-12T16:28:29.873Z,6.33
2018-11-12T16:30:58.284Z,4.97
2018-11-12T16:33:26.746Z,7.07
2018-11-12T16:35:55.174Z,5.80
2018-11-12T16:38:23.615Z,5.83
2018-11-12T16:40:52.028Z,5.07
2018-11-12T16:43:20.457Z,4.97
2018-11-12T16:45:48.914Z,4.63
2018-11-12T16:48:17.340Z,5.57
2018-11-12T16:50:45.752Z,4.57
2018-11-12T16:53:14.484Z,7.20
2018-11-12T16:55:42.865Z,5.93
2018-11-12T16:58:12.480Z,5.37
2018-11-12T17:00:40.964Z,5.30
2018-11-12T17:03:09.357Z,4.07
2018-11-12T17:05:37.803Z,6.70
2018-11-12T17:08:06.346Z,5.43
2018-11-12T17:10:34.707Z,6.17
2018-11-12T17:13:03.629Z,6.70
2018-11-12T17:15:32.075Z,9.97
2018-11-12T17:18:00.499Z,5.43
2018-11-12T17:20:28.906Z,6.17
2018-11-12T17:22:57.355Z,8.90
2018-11-12T17:25:25.787Z,8.27
2018-11-12T17:27:54.335Z,11.43
2018-11-12T17:30:22.850Z,6.60
2018-11-12T17:32:51.671Z,7.93
2018-11-12T17:35:21.249Z,5.93
2018-11-12T17:37:49.907Z,8.00
2018-11-12T17:40:20.339Z,8.57
2018-11-12T17:42:49.355Z,6.10
2018-11-12T17:45:20.088Z,6.33
2018-11-12T17:47:49.611Z,5.83
2018-11-12T17:50:18.039Z,6.50
2018-11-12T17:52:46.467Z,7.30
2018-11-12T17:55:14.907Z,7.80
2018-11-12T17:57:43.400Z,6.13
2018-11-12T18:00:15.300Z,6.20
2018-11-12T18:02:43.721Z,6.93
2018-11-12T18:05:12.141Z,6.83
2018-11-12T18:07:41.463Z,7.20
2018-11-12T18:10:10.753Z,7.10
2018-11-12T18:12:39.203Z,6.60
2018-11-12T18:15:10.166Z,7.53
2018-11-12T18:17:39.385Z,7.20
2018-11-12T18:20:11.983Z,9.60
2018-11-12T18:22:40.540Z,7.17
2018-11-12T18:25:09.681Z,8.40
2018-11-12T18:27:39.581Z,7.30
2018-11-12T18:30:14.423Z,7.00
2018-11-12T18:32:43.404Z,8.13
2018-11-12T18:35:11.856Z,7.50
2018-11-12T18:37:40.971Z,7.63
2018-11-12T18:40:11.469Z,7.00
2018-11-12T18:42:40.062Z,9.77
2018-11-12T18:45:10.717Z,7.50
2018-11-12T18:47:39.363Z,7.73
2018-11-12T18:50:11.007Z,7.30
2018-11-12T18:52:39.510Z,8.77
2018-11-12T18:55:08.548Z,7.90
2018-11-12T18:57:37.445Z,8.50
2018-11-12T19:00:07.721Z,8.77
2018-11-12T19:02:36.185Z,8.20
2018-11-12T19:05:06.082Z,9.23
2018-11-12T19:07:34.466Z,9.10
2018-11-12T19:10:02.899Z,9.20
2018-11-12T19:12:31.309Z,7.83
2018-11-12T19:14:59.900Z,10.57
2018-11-12T19:17:29.091Z,8.13
2018-11-12T19:19:57.443Z,8.03
2018-11-12T19:22:25.831Z,8.83
2018-11-12T19:24:54.357Z,8.03
2018-11-12T19:27:22.812Z,8.80
2018-11-12T19:29:51.261Z,8.07
2018-11-12T19:32:19.881Z,9.37
2018-11-12T19:34:48.308Z,8.37
2018-11-12T19:37:16.748Z,8.63
2018-11-12T19:39:45.474Z,7.77
2018-11-12T19:42:14.150Z,9.67
2018-11-12T19:44:42.656Z,8.83
2018-11-12T19:47:11.282Z,8.20
2018-11-12T19:49:39.684Z,11.87
2018-11-12T19:52:08.167Z,9.33
2018-11-12T19:54:36.675Z,9.43
2018-11-12T19:57:05.894Z,9.57
2018-11-12T19:59:34.319Z,8.43
2018-11-12T20:02:02.844Z,8.37
2018-11-12T20:04:32.371Z,8.53
2018-11-12T20:07:00.833Z,9.90
2018-11-12T20:09:29.267Z,8.20
2018-11-12T20:11:57.689Z,9.10
2018-11-12T20:14:26.474Z,8.27
2018-11-12T20:16:55.008Z,9.70
2018-11-12T20:19:23.460Z,9.47
2018-11-12T20:21:51.909Z,9.00
2018-11-12T20:24:20.322Z,8.57
2018-11-12T20:26:48.750Z,10.03
2018-11-12T20:29:17.442Z,8.83
2018-11-12T20:31:46.932Z,11.43
2018-11-12T20:34:15.551Z,9.33
2018-11-12T20:36:44.051Z,9.10
2018-11-12T20:39:12.397Z,8.33
2018-11-12T20:41:40.954Z,9.00
2018-11-12T20:44:09.422Z,10.20
2018-11-12T20:46:37.955Z,13.50
2018-11-12T20:49:06.441Z,10.03
2018-11-12T20:51:34.986Z,9.87
2018-11-12T20:54:03.589Z,9.07
2018-11-12T20:56:32.042Z,11.00
2018-11-12T20:59:00.622Z,9.17
2018-11-12T21:01:29.065Z,12.47
2018-11-12T21:03:57.495Z,9.50
2018-11-12T21:06:26.227Z,13.77
2018-11-12T21:08:54.706Z,8.30
2018-11-12T21:11:23.376Z,9.77
2018-11-12T21:13:51.789Z,9.77
2018-11-12T21:16:20.199Z,8.10
2018-11-12T21:18:48.729Z,8.07
2018-11-12T21:21:17.161Z,8.17
2018-11-12T21:23:45.659Z,11.10
2018-11-12T21:26:14.155Z,7.70
2018-11-12T21:28:42.843Z,8.60
2018-11-12T21:31:11.294Z,7.90
2018-11-12T21:33:39.807Z,8.33
2018-11-12T21:36:08.372Z,8.23
2018-11-12T21:38:36.842Z,16.93
2018-11-12T21:41:06.066Z,8.53
2018-11-12T21:43:34.559Z,10.67
2018-11-12T21:46:02.986Z,7.43
2018-11-12T21:48:31.695Z,8.50
2018-11-12T21:51:00.230Z,8.10
2018-11-12T21:53:28.660Z,7.73
2018-11-12T21:55:57.162Z,10.97
2018-11-12T21:58:25.623Z,8.63
2018-11-12T22:00:53.969Z,6.80
2018-11-12T22:03:22.405Z,7.13
2018-11-12T22:05:50.851Z,8.30
2018-11-12T22:08:19.344Z,8.13
2018-11-12T22:10:47.740Z,8.63
2018-11-12T22:13:16.205Z,9.13
2018-11-12T22:15:44.789Z,7.17
2018-11-12T22:18:14.298Z,9.77
2018-11-12T22:20:42.747Z,8.23
2018-11-12T22:23:11.126Z,6.93
2018-11-12T22:25:39.713Z,6.87
2018-11-12T22:28:08.190Z,6.87
2018-11-12T22:30:36.567Z,6.77
2018-11-12T22:33:04.955Z,6.70
2018-11-12T22:35:35.843Z,9.63
2018-11-12T22:38:05.326Z,8.43
2018-11-12T22:40:33.771Z,8.63
2018-11-12T22:43:02.117Z,9.03
2018-11-12T22:45:30.657Z,6.37
2018-11-12T22:47:59.507Z,6.60
2018-11-12T22:50:29.545Z,7.33
2018-11-12T22:52:57.967Z,5.93
2018-11-12T22:55:26.375Z,6.40
2018-11-12T22:57:54.741Z,6.17
2018-11-12T23:00:30.271Z,8.03
2018-11-12T23:02:59.368Z,5.63
2018-11-12T23:05:28.065Z,5.07
2018-11-12T23:07:57.237Z,5.80
2018-11-12T23:10:25.649Z,6.47
2018-11-12T23:12:54.061Z,6.03
2018-11-12T23:15:22.468Z,6.13
2018-11-12T23:17:51.140Z,8.53
2018-11-12T23:20:21.709Z,5.80
2018-11-12T23:22:50.570Z,6.03
2018-11-12T23:25:19.028Z,5.50
2018-11-12T23:27:48.043Z,6.57
2018-11-12T23:30:17.572Z,5.67
2018-11-12T23:32:45.977Z,6.67
2018-11-12T23:35:18.482Z,5.93
2018-11-12T23:37:47.424Z,5.27
2018-11-12T23:40:15.907Z,8.03
2018-11-12T23:42:44.961Z,4.67
2018-11-12T23:45:13.347Z,6.10
2018-11-12T23:47:41.795Z,5.97
2018-11-12T23:50:13.889Z,5.57
2018-11-12T23:52:42.761Z,4.80
2018-11-12T23:55:11.556Z,5.30
2018-11-12T23:57:39.994Z,4.90
